Golovin, Alaska
Current Conditions -  °F | °C
As of 5:36 PM on Saturday 20 Dec 2014 (Local Time) from PAGL Reporting Station
Clear Clear  
Wind Chill: -9°   Ceiling: Unl
Heat Index:   Visibility: 10mi
Dew Point:   Wind: 12mph
Humidity: 85%   Direction: 340°NNW
Pressure: 29.29"   Gusts: NA
Location:  64.56°N, 163.01°W
Report Text: PAGL 210236Z AUTO 34010KT 10SM CLR M14/M16 A2929 RMK AO1
Loading
Personal Weather Stations






























Interactive Weather Map New forecast layout! Learn more

10-Day Weather Forecast

Advertisements
Track Severe Weather on mobile